Time;durP1;ratioP1;P1;durP2;ratioP2;P2;SDS_P1;SDS_P2;PMS_P1;PMS_P2;Temp;Humidity;BMP_temperature;BMP_pressure;BME280_temperature;BME280_humidity;BME280_pressure;Samples;Min_cycle;Max_cycle;Signal;HPM_P1;HPM_P2
2022/04/21 00:01:03;;;;;;;9.13;5.80;;;7.30;99.90;;;;;;5051260;28;20048;-84
2022/04/21 00:03:28;;;;;;;8.25;5.90;;;7.30;99.90;;;;;;5046848;28;20046;-84
2022/04/21 00:05:54;;;;;;;9.55;5.88;;;7.40;99.90;;;;;;5037936;28;20048;-83
2022/04/21 00:08:20;;;;;;;7.97;6.32;;;7.30;99.90;;;;;;5050153;28;20048;-83
2022/04/21 00:10:45;;;;;;;7.95;6.50;;;7.30;99.90;;;;;;5051669;28;20041;-83
2022/04/21 00:13:12;;;;;;;9.55;6.85;;;7.30;99.90;;;;;;5050632;28;20121;-83
2022/04/21 00:15:37;;;;;;;9.20;6.90;;;7.30;99.90;;;;;;5050520;28;20028;-84
2022/04/21 00:18:03;;;;;;;8.50;5.78;;;7.30;99.90;;;;;;5034063;28;20119;-83
2022/04/21 00:20:29;;;;;;;8.45;6.75;;;7.20;99.90;;;;;;5046550;28;20043;-83
2022/04/21 00:25:39;;;;;;;8.75;6.82;;;7.20;99.90;;;;;;5051814;28;20132;-84
2022/04/21 00:28:06;;;;;;;10.27;6.78;;;7.10;99.90;;;;;;5050918;28;20116;-84
2022/04/21 00:30:32;;;;;;;7.57;6.60;;;7.10;99.90;;;;;;5051605;28;20037;-83
2022/04/21 00:32:57;;;;;;;8.20;6.40;;;7.10;99.90;;;;;;5051703;28;20654;-83
2022/04/21 00:35:23;;;;;;;9.50;6.60;;;7.00;99.90;;;;;;5051971;28;20064;-83
2022/04/21 00:37:56;;;;;;;8.52;7.13;;;7.00;99.90;;;;;;5050244;28;20497;-83
2022/04/21 00:40:26;;;;;;;9.93;7.07;;;7.00;99.90;;;;;;5052403;28;20122;-84
2022/04/21 00:42:53;;;;;;;7.72;6.78;;;6.90;99.90;;;;;;5049731;28;20619;-84
2022/04/21 00:45:18;;;;;;;10.57;7.82;;;6.90;99.90;;;;;;5052273;28;20049;-84
2022/04/21 00:47:46;;;;;;;8.35;7.10;;;6.90;99.90;;;;;;5050808;28;20041;-83
2022/04/21 00:50:19;;;;;;;10.10;7.97;;;6.90;99.90;;;;;;5051193;28;20049;-84
2022/04/21 00:52:46;;;;;;;9.48;7.85;;;6.80;99.90;;;;;;5050579;28;20049;-84
2022/04/21 00:55:12;;;;;;;10.32;7.40;;;6.80;99.90;;;;;;5050968;28;20474;-84
2022/04/21 00:57:38;;;;;;;11.65;7.10;;;6.80;99.90;;;;;;5049332;28;20045;-84
2022/04/21 01:00:06;;;;;;;8.98;7.57;;;6.80;99.90;;;;;;5035475;28;20345;-84
2022/04/21 01:02:49;;;;;;;8.23;7.40;;;6.70;99.90;;;;;;5028597;28;20087;-84
2022/04/21 01:05:28;;;;;;;9.40;7.60;;;6.70;99.90;;;;;;5051139;28;20041;-84
2022/04/21 01:07:55;;;;;;;9.63;7.57;;;6.60;99.90;;;;;;5081267;22;20079;-81
2022/04/21 01:10:22;;;;;;;12.30;8.82;;;6.50;99.90;;;;;;5078928;28;20040;-81
2022/04/21 01:12:48;;;;;;;11.40;8.10;;;6.50;99.90;;;;;;5068849;28;20043;-81
2022/04/21 01:15:14;;;;;;;10.50;8.55;;;6.40;99.90;;;;;;5069246;28;20029;-82
2022/04/21 01:17:39;;;;;;;9.45;8.18;;;6.40;99.90;;;;;;5058185;28;20068;-80
2022/04/21 01:20:07;;;;;;;10.48;8.65;;;6.40;99.90;;;;;;5067396;28;20036;-82
2022/04/21 01:22:33;;;;;;;10.18;8.55;;;6.40;99.90;;;;;;5048963;28;20029;-81
2022/04/21 01:24:59;;;;;;;12.18;9.10;;;6.40;99.90;;;;;;5076509;28;20047;-82
2022/04/21 01:27:27;;;;;;;11.02;9.68;;;6.40;99.90;;;;;;5053463;28;20055;-82
2022/04/21 01:29:53;;;;;;;13.82;10.27;;;6.40;99.90;;;;;;5069568;28;20028;-81
2022/04/21 01:32:19;;;;;;;12.82;10.27;;;6.30;99.90;;;;;;5065309;28;20105;-81
2022/04/21 01:34:44;;;;;;;15.05;10.43;;;6.30;99.90;;;;;;5053036;28;20414;-82
2022/04/21 01:42:38;;;;;;;15.88;10.63;;;6.20;99.90;;;;;;5064058;28;20040;-81
2022/04/21 01:45:04;;;;;;;12.65;9.02;;;6.10;99.90;;;;;;5053421;28;20739;-82
2022/04/21 01:47:30;;;;;;;12.13;10.20;;;6.10;99.90;;;;;;5068908;28;20726;-81
2022/04/21 01:49:55;;;;;;;12.57;10.07;;;6.10;99.90;;;;;;5062613;28;20040;-82
2022/04/21 01:52:21;;;;;;;12.10;10.40;;;6.10;99.90;;;;;;5056535;28;20397;-82
2022/04/21 01:54:50;;;;;;;14.32;10.77;;;6.10;99.90;;;;;;5073887;28;20052;-82
2022/04/21 01:57:17;;;;;;;13.50;10.50;;;6.00;99.90;;;;;;5074343;28;20037;-82
2022/04/21 01:59:42;;;;;;;13.05;10.80;;;6.10;99.90;;;;;;5073285;28;20416;-82
2022/04/21 02:02:08;;;;;;;14.95;10.52;;;6.10;99.90;;;;;;5073543;28;20044;-81
2022/04/21 02:04:33;;;;;;;15.35;12.40;;;6.10;99.90;;;;;;5070698;28;20036;-82
2022/04/21 02:06:59;;;;;;;13.55;10.85;;;6.00;99.90;;;;;;5073214;28;20512;-82
2022/04/21 02:09:24;;;;;;;16.17;12.70;;;6.00;99.90;;;;;;5070968;28;20528;-82
2022/04/21 02:11:51;;;;;;;15.38;11.95;;;6.10;99.90;;;;;;5058347;28;20036;-82
2022/04/21 02:14:16;;;;;;;16.15;12.32;;;6.10;99.90;;;;;;5066273;28;20044;-81
2022/04/21 02:16:42;;;;;;;15.98;12.55;;;6.10;99.90;;;;;;5088765;28;20462;-81
2022/04/21 02:19:07;;;;;;;18.05;12.88;;;6.10;99.90;;;;;;5056650;28;20119;-82
2022/04/21 02:21:33;;;;;;;15.25;12.63;;;6.10;99.90;;;;;;5073527;28;20047;-81
2022/04/21 02:23:58;;;;;;;17.58;13.50;;;6.00;99.90;;;;;;5073568;28;20049;-81
2022/04/21 02:26:24;;;;;;;16.80;12.65;;;5.90;99.90;;;;;;5073962;28;20451;-81
2022/04/21 02:28:49;;;;;;;16.38;12.23;;;5.90;99.90;;;;;;5060081;28;20526;-82
2022/04/21 02:31:15;;;;;;;16.00;12.75;;;6.00;99.90;;;;;;5082396;28;20466;-81
2022/04/21 02:33:40;;;;;;;16.08;12.02;;;6.00;99.90;;;;;;5058134;28;20049;-81
2022/04/21 02:36:06;;;;;;;14.68;12.13;;;6.00;99.90;;;;;;5061876;28;20459;-81
2022/04/21 02:38:31;;;;;;;17.10;13.57;;;6.00;99.90;;;;;;5045007;28;20036;-81
2022/04/21 02:40:57;;;;;;;15.45;12.52;;;6.00;99.90;;;;;;5072840;28;20124;-81
2022/04/21 02:43:22;;;;;;;15.35;12.90;;;6.00;99.90;;;;;;5072880;28;20053;-81
2022/04/21 02:45:48;;;;;;;14.93;12.60;;;6.00;99.90;;;;;;5059374;28;20037;-81
2022/04/21 02:48:14;;;;;;;15.45;12.25;;;5.90;99.90;;;;;;5060971;28;20044;-83
2022/04/21 02:50:41;;;;;;;14.10;11.85;;;5.90;99.90;;;;;;5053129;28;20052;-84
2022/04/21 02:53:07;;;;;;;15.93;12.25;;;5.90;99.90;;;;;;5066796;28;20493;-83
2022/04/21 02:58:34;;;;;;;15.52;11.50;;;5.90;99.90;;;;;;5034840;28;20156;-84
2022/04/21 03:01:00;;;;;;;14.65;11.88;;;5.90;99.90;;;;;;5063052;28;20052;-83
2022/04/21 03:03:25;;;;;;;13.80;11.38;;;5.90;99.90;;;;;;5059356;28;20124;-84
2022/04/21 03:05:51;;;;;;;14.98;11.57;;;5.90;99.90;;;;;;5055771;28;20036;-83
2022/04/21 03:08:16;;;;;;;14.85;11.15;;;5.90;99.90;;;;;;5072143;28;20037;-83
2022/04/21 03:10:42;;;;;;;15.07;12.00;;;5.90;99.90;;;;;;5055509;28;20029;-84
2022/04/21 03:13:07;;;;;;;13.73;12.23;;;5.90;99.90;;;;;;5071699;28;20039;-83
2022/04/21 03:15:33;;;;;;;13.73;11.15;;;5.80;99.90;;;;;;5055760;28;20066;-83
2022/04/21 03:17:58;;;;;;;15.90;11.52;;;5.80;99.90;;;;;;5073468;28;20043;-84
2022/04/21 03:25:52;;;;;;;14.80;10.95;;;5.80;99.90;;;;;;5071432;28;20374;-84
2022/04/21 03:28:18;;;;;;;13.57;10.82;;;5.70;99.90;;;;;;5072502;28;20039;-84
2022/04/21 03:30:43;;;;;;;15.07;11.52;;;5.80;99.90;;;;;;5066381;28;20028;-84
2022/04/21 03:33:09;;;;;;;13.32;10.88;;;5.80;99.90;;;;;;5065209;28;20075;-84
2022/04/21 03:35:35;;;;;;;16.27;11.65;;;5.70;99.90;;;;;;5058414;28;20127;-84
2022/04/21 03:38:00;;;;;;;12.50;11.05;;;5.70;99.90;;;;;;5065917;28;20044;-84
2022/04/21 03:40:26;;;;;;;13.93;11.52;;;5.60;99.90;;;;;;5072641;28;20040;-84
2022/04/21 03:42:51;;;;;;;12.45;10.85;;;5.70;99.90;;;;;;5063105;28;20052;-84
2022/04/21 03:45:17;;;;;;;13.73;11.32;;;5.60;99.90;;;;;;5056540;28;20033;-84
2022/04/21 03:47:42;;;;;;;13.88;11.30;;;5.60;99.90;;;;;;5072564;28;20036;-84
2022/04/21 03:50:08;;;;;;;12.88;11.32;;;5.60;99.90;;;;;;5060165;28;20544;-84
2022/04/21 03:52:34;;;;;;;13.43;11.82;;;5.50;99.90;;;;;;5072115;28;20044;-84
2022/04/21 03:54:59;;;;;;;14.10;11.70;;;5.60;99.90;;;;;;5071695;28;20063;-84
2022/04/21 03:57:27;;;;;;;13.98;11.77;;;5.60;99.90;;;;;;5071675;28;20592;-84
2022/04/21 03:59:53;;;;;;;15.27;11.25;;;5.50;99.90;;;;;;5060043;28;20044;-84
2022/04/21 04:02:18;;;;;;;14.63;10.98;;;5.50;99.90;;;;;;5054939;28;20070;-84
2022/04/21 04:04:44;;;;;;;14.27;11.43;;;5.50;99.90;;;;;;5066364;28;20036;-84
2022/04/21 04:12:40;;;;;;;12.70;11.15;;;5.50;99.90;;;;;;5071785;28;20048;-84
2022/04/21 04:15:06;;;;;;;12.70;10.95;;;5.60;99.90;;;;;;5055150;28;20032;-84
2022/04/21 04:17:33;;;;;;;14.82;11.80;;;5.50;99.90;;;;;;5071242;28;20496;-84
2022/04/21 04:19:59;;;;;;;13.45;11.38;;;5.50;99.90;;;;;;5072018;28;20474;-84
2022/04/21 04:22:24;;;;;;;14.93;11.52;;;5.50;99.90;;;;;;5055470;28;20044;-85
2022/04/21 04:24:53;;;;;;;14.27;10.90;;;5.50;99.90;;;;;;5071794;28;20402;-83
2022/04/21 04:27:20;;;;;;;13.93;11.32;;;5.50;99.90;;;;;;5071439;28;20065;-85
2022/04/21 04:29:45;;;;;;;13.27;11.43;;;5.50;99.90;;;;;;5053352;28;20113;-84
2022/04/21 04:32:11;;;;;;;14.80;11.38;;;5.60;99.90;;;;;;5044127;28;20087;-84
2022/04/21 04:34:37;;;;;;;12.57;10.68;;;5.60;99.90;;;;;;5059437;28;20117;-84
2022/04/21 04:37:02;;;;;;;19.15;11.35;;;5.60;99.90;;;;;;5067341;28;20033;-85
2022/04/21 04:39:28;;;;;;;13.52;11.45;;;5.60;99.90;;;;;;5055385;28;20032;-84
2022/04/21 04:44:37;;;;;;;14.18;10.68;;;5.50;99.90;;;;;;5059388;28;20083;-85
2022/04/21 04:47:03;;;;;;;12.65;10.23;;;5.60;99.90;;;;;;5070972;28;20446;-84
2022/04/21 04:49:28;;;;;;;12.13;10.43;;;5.50;99.90;;;;;;5067832;28;20037;-84
2022/04/21 04:51:54;;;;;;;12.52;10.52;;;5.60;99.90;;;;;;5057516;28;20056;-84
2022/04/21 04:54:20;;;;;;;12.95;10.43;;;5.50;99.90;;;;;;5063388;28;20401;-85
2022/04/21 04:56:47;;;;;;;12.45;10.27;;;5.60;99.90;;;;;;5054052;28;20405;-84
2022/04/21 04:59:13;;;;;;;12.45;10.40;;;5.70;99.90;;;;;;5050957;28;20041;-83
2022/04/21 05:01:45;;;;;;;11.15;9.65;;;5.70;99.90;;;;;;5070814;28;20059;-84
2022/04/21 05:04:18;;;;;;;13.82;10.95;;;5.70;99.90;;;;;;5053172;28;20611;-84
2022/04/21 05:06:52;;;;;;;10.25;9.15;;;5.70;99.90;;;;;;5062918;28;20063;-84
2022/04/21 05:09:22;;;;;;;11.07;9.95;;;5.80;99.90;;;;;;5053221;28;20444;-84
2022/04/21 05:11:51;;;;;;;11.43;9.68;;;5.80;99.90;;;;;;5072803;28;20355;-84
2022/04/21 05:14:17;;;;;;;11.40;9.65;;;5.90;99.90;;;;;;5071921;28;20048;-84
2022/04/21 05:16:43;;;;;;;13.15;9.93;;;6.00;99.90;;;;;;5055699;28;20040;-84
2022/04/21 05:19:13;;;;;;;11.63;10.10;;;6.00;99.90;;;;;;5070544;28;20040;-84
2022/04/21 05:21:40;;;;;;;11.60;9.98;;;6.10;99.90;;;;;;5052337;28;20494;-84
2022/04/21 05:24:07;;;;;;;13.30;9.90;;;6.20;99.90;;;;;;5062290;28;20045;-84
2022/04/21 05:26:34;;;;;;;13.27;9.18;;;6.30;99.90;;;;;;5048593;28;20051;-84
2022/04/21 05:31:48;;;;;;;12.85;9.05;;;6.40;99.90;;;;;;5072005;28;20044;-84
2022/04/21 05:34:14;;;;;;;12.10;9.27;;;6.50;99.90;;;;;;5055722;28;20370;-84
2022/04/21 05:36:40;;;;;;;12.15;10.23;;;6.60;99.90;;;;;;5059488;28;20036;-86
2022/04/21 05:39:06;;;;;;;11.13;8.60;;;6.70;99.90;;;;;;5070791;28;20486;-84
2022/04/21 05:41:32;;;;;;;13.10;9.18;;;6.90;99.90;;;;;;5080016;28;20040;-83
2022/04/21 05:43:58;;;;;;;9.82;8.80;;;7.10;99.90;;;;;;5038145;28;20041;-84
2022/04/21 05:46:24;;;;;;;11.15;8.68;;;8.00;99.90;;;;;;5060730;28;20607;-83
2022/04/21 05:48:50;;;;;;;10.90;8.55;;;9.20;99.90;;;;;;5066483;28;20041;-84
2022/04/21 05:51:16;;;;;;;10.30;9.20;;;10.20;99.90;;;;;;5057226;28;20391;-83
2022/04/21 05:53:47;;;;;;;11.13;8.30;;;11.00;99.90;;;;;;5066952;28;20136;-85
2022/04/21 05:56:13;;;;;;;8.82;7.85;;;11.90;99.90;;;;;;5070254;28;20040;-83
2022/04/21 05:58:39;;;;;;;10.13;7.97;;;12.50;99.90;;;;;;5059861;28;20049;-84
2022/04/21 06:01:07;;;;;;;9.23;8.20;;;12.90;99.90;;;;;;5065308;28;20041;-83
2022/04/21 06:03:35;;;;;;;8.13;6.82;;;13.40;99.80;;;;;;5059324;28;20090;-83
2022/04/21 06:06:01;;;;;;;8.02;7.22;;;14.20;98.70;;;;;;5061261;28;20455;-83
2022/04/21 06:08:26;;;;;;;8.43;7.00;;;14.80;97.20;;;;;;5036495;28;20037;-84
2022/04/21 06:10:52;;;;;;;8.82;6.80;;;15.50;96.30;;;;;;5052750;28;20132;-83
2022/04/21 06:13:18;;;;;;;7.10;6.35;;;16.10;94.40;;;;;;5035971;28;20123;-83
2022/04/21 06:15:44;;;;;;;6.70;6.00;;;16.70;93.10;;;;;;5052776;28;20045;-83
2022/04/21 06:18:09;;;;;;;6.53;5.88;;;17.00;90.00;;;;;;5052466;28;20179;-83
2022/04/21 06:20:35;;;;;;;7.55;6.38;;;17.70;88.60;;;;;;5065744;28;20052;-80
2022/04/21 06:23:01;;;;;;;8.57;6.30;;;17.90;79.00;;;;;;5072463;28;20052;-80
2022/04/21 06:25:27;;;;;;;6.68;5.88;;;18.40;81.00;;;;;;5071471;28;20041;-80
2022/04/21 06:27:53;;;;;;;6.72;5.55;;;18.80;76.60;;;;;;5072422;28;20198;-82
2022/04/21 06:30:19;;;;;;;6.22;5.45;;;19.10;71.70;;;;;;5045526;28;20423;-81
2022/04/21 06:32:45;;;;;;;6.78;4.93;;;19.40;70.80;;;;;;5070595;28;20485;-82
2022/04/21 06:35:11;;;;;;;5.65;4.80;;;19.70;69.50;;;;;;5071017;28;20066;-81
2022/04/21 06:37:37;;;;;;;7.03;5.20;;;19.70;65.70;;;;;;5071976;28;20477;-81
2022/04/21 06:40:06;;;;;;;14.48;5.38;;;20.10;66.30;;;;;;5070741;28;20036;-82
2022/04/21 06:42:31;;;;;;;6.90;5.13;;;19.50;60.50;;;;;;5068426;28;20055;-82
2022/04/21 06:50:25;;;;;;;5.18;4.50;;;20.60;62.10;;;;;;5068079;28;20708;-82
2022/04/21 06:52:51;;;;;;;5.00;4.50;;;19.90;58.60;;;;;;5069051;28;20120;-80
2022/04/21 06:55:16;;;;;;;5.88;4.22;;;19.80;60.60;;;;;;5068479;28;20072;-82
2022/04/21 06:57:42;;;;;;;5.80;4.63;;;20.20;60.40;;;;;;5053607;28;20068;-81
2022/04/21 07:00:09;;;;;;;4.75;4.10;;;20.50;59.70;;;;;;5064798;28;20087;-81
2022/04/21 07:02:38;;;;;;;4.20;3.80;;;20.90;59.50;;;;;;5053077;28;20458;-82
2022/04/21 07:05:09;;;;;;;4.60;3.70;;;20.90;58.20;;;;;;5042267;28;20044;-81
2022/04/21 07:07:35;;;;;;;4.07;3.45;;;21.00;53.10;;;;;;5054962;28;20150;-81
2022/04/21 07:10:01;;;;;;;4.15;3.40;;;20.60;54.60;;;;;;5047505;28;20032;-81
2022/04/21 07:12:30;;;;;;;4.10;3.75;;;20.80;55.60;;;;;;5065828;28;20086;-81
2022/04/21 07:15:01;;;;;;;4.97;3.47;;;20.50;52.40;;;;;;5046498;28;20037;-81
2022/04/21 07:17:26;;;;;;;6.03;3.35;;;20.50;54.10;;;;;;5067613;28;20051;-81
2022/04/21 07:19:53;;;;;;;3.78;3.20;;;21.00;52.00;;;;;;5059620;28;20036;-81
2022/04/21 07:22:20;;;;;;;3.70;3.38;;;21.10;53.50;;;;;;5069235;28;20051;-81
2022/04/21 07:24:46;;;;;;;4.30;2.95;;;21.40;54.30;;;;;;5063984;28;20044;-82
2022/04/21 07:27:12;;;;;;;4.45;3.50;;;21.30;52.30;;;;;;5062668;28;20056;-81
2022/04/21 07:29:38;;;;;;;5.10;3.22;;;21.50;53.60;;;;;;5065795;28;20029;-81
2022/04/21 07:32:04;;;;;;;4.93;3.38;;;21.40;53.10;;;;;;5066416;28;20046;-83
2022/04/21 07:34:30;;;;;;;4.55;3.10;;;21.30;51.70;;;;;;5060439;28;20041;-81
2022/04/21 07:36:55;;;;;;;3.75;3.30;;;21.10;52.40;;;;;;5042191;28;20040;-82
2022/04/21 07:39:21;;;;;;;6.22;3.38;;;21.30;53.00;;;;;;5067237;28;20041;-81
2022/04/21 07:41:46;;;;;;;3.53;3.05;;;21.30;50.20;;;;;;5065809;28;20072;-80
2022/04/21 07:44:12;;;;;;;7.95;3.40;;;20.90;50.50;;;;;;5056196;28;20122;-81
2022/04/21 07:46:38;;;;;;;5.60;3.45;;;20.30;50.40;;;;;;5067948;28;20566;-81
2022/04/21 07:51:47;;;;;;;6.30;3.38;;;19.60;54.80;;;;;;5052861;28;20044;-82
2022/04/21 07:54:13;;;;;;;3.35;2.92;;;18.80;56.50;;;;;;5065048;28;20398;-82
2022/04/21 07:56:38;;;;;;;3.63;3.33;;;17.80;58.20;;;;;;5063869;28;20072;-82
2022/04/21 07:59:04;;;;;;;13.27;3.60;;;17.30;60.00;;;;;;5052825;28;20048;-83
2022/04/21 08:01:29;;;;;;;9.07;3.00;;;16.90;60.50;;;;;;5071515;28;20114;-82
2022/04/21 08:03:57;;;;;;;5.93;2.95;;;16.50;62.70;;;;;;5058228;28;20427;-81
2022/04/21 08:06:23;;;;;;;3.72;2.90;;;;;;;;;;5071493;28;20640;-82
2022/04/21 08:08:49;;;;;;;2.90;2.70;;;15.80;62.90;;;;;;5067414;28;20151;-81
2022/04/21 08:11:15;;;;;;;5.72;3.03;;;15.60;62.90;;;;;;5081726;28;20437;-83
2022/04/21 08:13:40;;;;;;;10.15;2.90;;;15.50;64.90;;;;;;5071539;28;20470;-82
2022/04/21 08:16:06;;;;;;;6.28;2.90;;;15.30;66.10;;;;;;5070052;28;20040;-82
2022/04/21 08:18:31;;;;;;;3.28;2.55;;;15.30;65.00;;;;;;5064892;28;20036;-82
2022/04/21 08:20:58;;;;;;;4.22;2.80;;;15.00;65.30;;;;;;5071214;28;20032;-81
2022/04/21 08:23:25;;;;;;;4.55;2.90;;;15.10;63.70;;;;;;5054671;28;20040;-82
2022/04/21 08:32:33;;;;;;;4.57;2.58;;;15.20;68.10;;;;;;5061260;28;20037;-83
2022/04/21 08:34:25;;;;;;;2.78;2.50;;;15.30;69.30;;;;;;5051041;28;20041;-82
2022/04/21 08:36:51;;;;;;;3.00;2.70;;;15.40;66.00;;;;;;5052425;28;20045;-82
2022/04/21 08:39:16;;;;;;;3.47;2.60;;;15.40;66.10;;;;;;5056670;28;20076;-82
2022/04/21 08:41:49;;;;;;;3.70;3.20;;;15.50;67.30;;;;;;5062274;28;20067;-82
2022/04/21 08:44:19;;;;;;;4.35;3.00;;;15.40;68.00;;;;;;5055860;28;20044;-82
2022/04/21 08:46:47;;;;;;;2.95;2.72;;;15.30;66.60;;;;;;5058891;28;20047;-82
2022/04/21 08:49:17;;;;;;;4.63;2.75;;;15.30;67.20;;;;;;5075549;28;20041;-82
2022/04/21 08:51:43;;;;;;;3.00;2.65;;;15.30;69.70;;;;;;5045019;28;20090;-82
2022/04/21 08:54:08;;;;;;;6.47;3.38;;;15.50;70.30;;;;;;5055603;28;20041;-82
2022/04/21 08:56:34;;;;;;;4.95;2.83;;;15.60;67.90;;;;;;5065722;28;20130;-82
2022/04/21 08:59:00;;;;;;;4.03;2.92;;;15.70;69.80;;;;;;5075543;28;20066;-82
2022/04/21 09:01:26;;;;;;;11.07;4.03;;;15.70;70.10;;;;;;5057167;28;20040;-82
2022/04/21 09:03:51;;;;;;;3.83;3.05;;;15.70;67.60;;;;;;5073535;28;20040;-82
2022/04/21 09:06:19;;;;;;;3.95;3.03;;;15.60;69.90;;;;;;5056631;28;20049;-82
2022/04/21 09:08:45;;;;;;;5.18;2.80;;;15.70;67.40;;;;;;5068226;28;20049;-82
2022/04/21 09:11:15;;;;;;;4.07;2.63;;;15.80;71.10;;;;;;5069491;28;20044;-81
2022/04/21 09:13:42;;;;;;;4.22;3.00;;;15.60;68.10;;;;;;5072670;28;20048;-82
2022/04/21 09:16:09;;;;;;;6.40;2.90;;;15.50;70.30;;;;;;5054230;28;20036;-81
2022/04/21 09:18:36;;;;;;;3.42;2.95;;;15.50;67.40;;;;;;5063396;28;20572;-82
2022/04/21 09:21:07;;;;;;;3.67;3.03;;;15.70;69.80;;;;;;5051615;28;20440;-82
2022/04/21 09:23:33;;;;;;;4.05;2.83;;;15.80;70.80;;;;;;5072318;28;20044;-81
2022/04/21 09:26:16;;;;;;;4.35;3.00;;;16.00;70.10;;;;;;5074165;28;20044;-82
2022/04/21 09:28:42;;;;;;;6.60;2.78;;;16.00;69.00;;;;;;5067961;28;20717;-81
2022/04/21 09:31:09;;;;;;;4.57;2.97;;;16.10;70.60;;;;;;5068452;28;20032;-81
2022/04/21 09:33:39;;;;;;;3.10;2.80;;;16.20;70.20;;;;;;5052195;28;20036;-81
2022/04/21 09:36:06;;;;;;;5.80;3.50;;;16.20;70.20;;;;;;5049685;28;20052;-82
2022/04/21 09:38:33;;;;;;;6.32;3.35;;;16.20;70.50;;;;;;5070522;28;20044;-82
2022/04/21 09:41:07;;;;;;;3.80;2.80;;;16.20;69.50;;;;;;5073173;28;20044;-82
2022/04/21 09:43:35;;;;;;;3.55;3.22;;;16.40;69.70;;;;;;5073023;28;20390;-81
2022/04/21 09:46:16;;;;;;;8.05;3.33;;;16.40;69.90;;;;;;5057510;28;20062;-82
2022/04/21 09:48:43;;;;;;;5.27;3.23;;;16.40;71.30;;;;;;5072512;28;20039;-83
2022/04/21 09:51:14;;;;;;;4.85;3.17;;;16.60;71.00;;;;;;5070123;28;20040;-83
2022/04/21 09:54:03;;;;;;;4.50;3.58;;;16.60;68.50;;;;;;5073567;28;20055;-83
2022/04/21 09:56:30;;;;;;;5.88;3.20;;;16.70;68.00;;;;;;5055699;28;20086;-83
2022/04/21 09:58:56;;;;;;;5.03;3.17;;;16.80;68.40;;;;;;5057386;28;20612;-81
2022/04/21 10:01:22;;;;;;;5.55;3.30;;;17.00;67.50;;;;;;5056559;28;20131;-82
2022/04/21 10:03:48;;;;;;;6.05;3.35;;;16.30;64.10;;;;;;5068746;28;20132;-82
2022/04/21 10:06:16;;;;;;;3.30;3.00;;;16.50;68.30;;;;;;5061510;28;20056;-83
2022/04/21 10:08:43;;;;;;;6.10;3.40;;;16.50;66.90;;;;;;5068499;28;20047;-83
2022/04/21 10:11:09;;;;;;;2.90;2.70;;;16.40;64.80;;;;;;5055535;28;20029;-82
2022/04/21 10:13:36;;;;;;;4.07;2.70;;;16.70;68.70;;;;;;5073256;28;20131;-82
2022/04/21 10:16:02;;;;;;;6.05;3.33;;;16.80;67.00;;;;;;5066609;28;20055;-82
2022/04/21 10:18:28;;;;;;;5.85;2.95;;;16.80;66.30;;;;;;5064783;28;20534;-82
2022/04/21 10:20:57;;;;;;;2.97;2.72;;;16.90;68.40;;;;;;5055545;28;20040;-83
2022/04/21 10:23:26;;;;;;;6.68;3.10;;;16.90;69.40;;;;;;5056527;28;20045;-82
2022/04/21 10:26:03;;;;;;;6.05;2.85;;;16.80;64.50;;;;;;5072749;28;20036;-82
2022/04/21 10:28:42;;;;;;;7.78;3.00;;;17.10;69.10;;;;;;5067948;28;20083;-82
2022/04/21 10:31:33;;;;;;;3.25;2.95;;;17.20;67.70;;;;;;5052333;28;20078;-82
2022/04/21 10:34:04;;;;;;;12.45;3.40;;;17.30;65.00;;;;;;5060015;28;20037;-82
2022/04/21 10:36:47;;;;;;;3.13;2.83;;;17.30;66.10;;;;;;5069106;28;20409;-85
2022/04/21 10:39:23;;;;;;;3.40;2.83;;;17.30;64.40;;;;;;5035324;28;20059;-83
2022/04/21 10:42:14;;;;;;;5.22;2.88;;;17.10;64.50;;;;;;5063418;28;20504;-83
2022/04/21 10:44:42;;;;;;;3.78;3.20;;;16.70;65.40;;;;;;5074012;28;20037;-82
2022/04/21 10:47:36;;;;;;;4.25;3.03;;;16.80;66.60;;;;;;5067553;28;20040;-82
2022/04/21 10:50:16;;;;;;;3.05;2.83;;;16.90;67.80;;;;;;5065633;28;20119;-83
2022/04/21 10:58:34;;;;;;;3.70;3.00;;;17.30;63.80;;;;;;5066808;28;20048;-83
2022/04/21 11:01:09;;;;;;;3.28;2.92;;;17.40;66.50;;;;;;5055867;28;20040;-83
2022/04/21 11:03:36;;;;;;;6.35;2.92;;;17.50;65.70;;;;;;5072084;28;20127;-83
2022/04/21 11:06:09;;;;;;;3.47;2.97;;;17.60;63.20;;;;;;5070854;28;20041;-82
2022/04/21 11:08:35;;;;;;;3.10;2.90;;;17.70;66.60;;;;;;5073078;28;20045;-82
2022/04/21 11:11:01;;;;;;;5.07;3.20;;;17.60;66.00;;;;;;5072670;28;20508;-82
2022/04/21 11:14:02;;;;;;;3.25;2.95;;;17.10;61.60;;;;;;5071781;28;20156;-82
2022/04/21 11:16:40;;;;;;;4.68;3.03;;;17.60;66.10;;;;;;5062075;28;20063;-82
2022/04/21 11:19:28;;;;;;;4.47;3.20;;;17.80;66.50;;;;;;5064668;28;20049;-82
2022/04/21 11:21:54;;;;;;;4.13;2.55;;;17.90;64.90;;;;;;5051346;28;20123;-82
2022/04/21 11:24:19;;;;;;;2.63;2.42;;;18.10;64.70;;;;;;5043439;28;20108;-78
2022/04/21 11:26:59;;;;;;;3.55;2.72;;;17.50;59.70;;;;;;5071589;28;20430;-78
2022/04/21 11:29:25;;;;;;;4.55;2.13;;;17.90;61.30;;;;;;5070605;28;20052;-78
2022/04/21 11:31:57;;;;;;;2.97;2.58;;;18.10;61.80;;;;;;5066531;28;20406;-78
2022/04/21 11:34:24;;;;;;;5.25;2.65;;;18.00;59.00;;;;;;5069835;28;20056;-78
2022/04/21 11:36:56;;;;;;;2.80;2.40;;;17.70;59.00;;;;;;5061685;28;20040;-77
2022/04/21 11:39:22;;;;;;;4.30;2.80;;;17.80;61.70;;;;;;5054996;28;20045;-77
2022/04/21 11:41:52;;;;;;;3.10;2.80;;;17.90;60.00;;;;;;5064513;28;20123;-78
2022/04/21 11:44:27;;;;;;;3.13;2.75;;;18.20;63.80;;;;;;5040622;28;20118;-77
2022/04/21 11:46:54;;;;;;;4.88;2.60;;;18.50;63.50;;;;;;5055008;28;20052;-77
2022/04/21 11:49:19;;;;;;;3.15;2.50;;;18.60;59.80;;;;;;5058695;28;20036;-78
2022/04/21 11:51:51;;;;;;;3.20;2.40;;;18.40;61.20;;;;;;5067411;28;20566;-78
2022/04/21 11:54:17;;;;;;;2.53;2.33;;;18.50;61.10;;;;;;5053988;28;20041;-78
2022/04/21 11:56:52;;;;;;;4.10;2.50;;;18.60;63.20;;;;;;5069247;28;20047;-78
2022/04/21 11:59:17;;;;;;;2.92;2.70;;;18.40;61.90;;;;;;5059639;28;20113;-78
2022/04/21 12:07:29;;;;;;;3.85;3.28;;;18.00;59.80;;;;;;5021428;28;20063;-78
2022/04/21 12:09:54;;;;;;;12.93;2.63;;;17.90;61.30;;;;;;5057371;28;20115;-78
2022/04/21 12:12:21;;;;;;;3.03;2.78;;;18.00;63.50;;;;;;5053237;28;20048;-78
2022/04/21 12:14:46;;;;;;;3.85;2.50;;;18.10;64.00;;;;;;5052959;28;20040;-78
2022/04/21 12:17:12;;;;;;;6.18;2.90;;;17.90;63.70;;;;;;5053209;28;20393;-78
2022/04/21 12:19:39;;;;;;;4.72;3.00;;;17.90;63.30;;;;;;5086064;28;20385;-78
2022/04/21 12:22:10;;;;;;;4.80;3.38;;;17.90;64.60;;;;;;5064636;28;20537;-78
2022/04/21 12:24:44;;;;;;;5.10;3.40;;;17.80;62.20;;;;;;5067826;28;20674;-75
2022/04/21 12:27:23;;;;;;;13.32;3.60;;;17.80;64.00;;;;;;5069417;28;20037;-78
2022/04/21 12:29:51;;;;;;;5.15;3.67;;;17.80;62.90;;;;;;5069535;28;20455;-78
2022/04/21 12:32:41;;;;;;;6.18;3.63;;;17.90;65.30;;;;;;5065411;28;20045;-78
2022/04/21 12:35:09;;;;;;;8.18;3.88;;;18.20;66.10;;;;;;5066741;28;20043;-78
2022/04/21 12:37:36;;;;;;;8.55;3.42;;;18.20;63.00;;;;;;5060873;28;20041;-77
2022/04/21 12:40:05;;;;;;;10.15;4.35;;;17.60;59.80;;;;;;5064488;28;20517;-78
2022/04/21 12:42:32;;;;;;;3.67;2.78;;;18.20;63.40;;;;;;5069299;28;20048;-78
2022/04/21 12:44:58;;;;;;;3.40;3.10;;;18.30;58.50;;;;;;5043546;28;20063;-78
2022/04/21 12:47:24;;;;;;;5.45;4.18;;;18.50;63.30;;;;;;5083985;28;20389;-77
2022/04/21 12:50:08;;;;;;;4.10;3.78;;;18.50;63.60;;;;;;5063380;28;20056;-77
2022/04/21 12:52:55;;;;;;;4.43;3.55;;;18.60;62.50;;;;;;5061926;28;20067;-77
2022/04/21 12:55:21;;;;;;;8.48;3.97;;;18.30;61.80;;;;;;5058975;28;20551;-78
2022/04/21 12:58:10;;;;;;;4.40;4.00;;;18.30;61.60;;;;;;5070154;28;20064;-77
2022/04/21 13:00:40;;;;;;;6.18;4.18;;;17.20;61.10;;;;;;5065301;28;20086;-79
2022/04/21 13:03:07;;;;;;;5.07;3.70;;;17.10;61.70;;;;;;5052564;28;20052;-78
2022/04/21 13:05:33;;;;;;;5.50;3.75;;;17.00;61.90;;;;;;5043116;28;20033;-78
2022/04/21 13:07:59;;;;;;;4.22;3.80;;;16.90;61.70;;;;;;5071083;28;20090;-79
2022/04/21 13:10:26;;;;;;;10.45;3.90;;;17.30;63.80;;;;;;5065361;28;20463;-79
2022/04/21 13:12:51;;;;;;;6.30;4.07;;;17.50;61.70;;;;;;5090378;28;20543;-79
2022/04/21 13:15:17;;;;;;;4.50;3.33;;;17.90;61.00;;;;;;5066333;28;20032;-79
2022/04/21 13:17:43;;;;;;;4.63;3.45;;;17.80;62.00;;;;;;5046899;28;20036;-79
2022/04/21 13:20:09;;;;;;;4.13;3.58;;;18.10;64.60;;;;;;5041181;28;20849;-80
2022/04/21 13:22:36;;;;;;;5.05;3.47;;;18.20;60.90;;;;;;5060522;22;20049;-80
2022/04/21 13:25:02;;;;;;;4.25;3.85;;;18.30;61.50;;;;;;5048989;28;20670;-80
2022/04/21 13:27:29;;;;;;;4.20;3.80;;;18.50;63.40;;;;;;5052056;28;20028;-80
2022/04/21 13:29:55;;;;;;;4.30;3.90;;;18.50;63.80;;;;;;5047754;28;20044;-80
2022/04/21 13:35:25;;;;;;;5.20;3.72;;;18.50;61.80;;;;;;4971204;28;20691;-80
2022/04/21 13:37:50;;;;;;;6.57;3.65;;;18.60;62.10;;;;;;4968458;28;20082;-79
2022/04/21 13:40:16;;;;;;;4.53;4.13;;;18.70;63.50;;;;;;4996266;28;20064;-79
2022/04/21 13:42:41;;;;;;;4.88;3.95;;;18.20;59.40;;;;;;5036477;28;20043;-79
2022/04/21 13:45:07;;;;;;;5.13;4.20;;;18.40;63.20;;;;;;5023039;28;20041;-79